Time;durP1;ratioP1;P1;durP2;ratioP2;P2;SDS_P1;SDS_P2;PMS_P1;PMS_P2;Temp;Humidity;BMP_temperature;BMP_pressure;BME280_temperature;BME280_humidity;BME280_pressure;Samples;Min_cycle;Max_cycle;Signal;HPM_P1;HPM_P2
2022/01/03 00:00:48;;;;;;;12.13;1.83;;;8.10;99.90;;;;;;4938383;29;20048;-80
2022/01/03 00:03:16;;;;;;;12.77;1.33;;;8.10;99.90;;;;;;4921104;29;20048;-79
2022/01/03 00:05:41;;;;;;;11.77;2.13;;;8.10;99.90;;;;;;4921297;29;20484;-79
2022/01/03 00:08:07;;;;;;;16.70;1.77;;;8.10;99.90;;;;;;4921095;29;20048;-79
2022/01/03 00:10:34;;;;;;;11.40;1.63;;;8.10;99.90;;;;;;4921129;29;20051;-80
2022/01/03 00:13:01;;;;;;;12.50;1.52;;;8.20;99.90;;;;;;4921115;29;20051;-80
2022/01/03 00:15:27;;;;;;;11.07;1.60;;;8.20;99.90;;;;;;4937994;29;20400;-80
2022/01/03 00:17:53;;;;;;;11.02;2.05;;;8.20;99.90;;;;;;4938123;29;20047;-80
2022/01/03 00:20:21;;;;;;;14.48;2.40;;;8.20;99.90;;;;;;4938049;29;20580;-80
2022/01/03 00:22:55;;;;;;;9.68;1.80;;;8.20;99.90;;;;;;4920552;29;20464;-80
2022/01/03 00:25:22;;;;;;;13.80;1.80;;;8.20;99.90;;;;;;4921123;29;20059;-80
2022/01/03 00:28:02;;;;;;;10.65;1.40;;;8.20;99.90;;;;;;4920852;29;20559;-80
2022/01/03 00:30:30;;;;;;;9.50;1.63;;;8.20;99.90;;;;;;4920571;29;20492;-80
2022/01/03 00:32:58;;;;;;;10.70;1.80;;;8.20;99.90;;;;;;4937621;29;20091;-80
2022/01/03 00:35:24;;;;;;;11.52;1.73;;;8.20;99.90;;;;;;4937734;29;20081;-80
2022/01/03 00:37:50;;;;;;;11.25;2.10;;;8.20;99.90;;;;;;4937493;29;20098;-80
2022/01/03 00:40:19;;;;;;;13.55;1.80;;;8.20;99.90;;;;;;4920517;29;20122;-80
2022/01/03 00:42:45;;;;;;;10.63;2.00;;;8.20;99.90;;;;;;4937122;29;20052;-80
2022/01/03 00:45:11;;;;;;;13.57;3.00;;;8.20;99.90;;;;;;4920627;29;20040;-80
2022/01/03 00:47:38;;;;;;;13.40;2.17;;;8.20;99.90;;;;;;4937531;29;20051;-79
2022/01/03 00:50:10;;;;;;;12.82;2.60;;;8.10;99.90;;;;;;4920465;29;20097;-80
2022/01/03 00:52:36;;;;;;;15.30;2.50;;;8.10;99.90;;;;;;4920379;29;20048;-80
2022/01/03 00:55:03;;;;;;;19.08;4.10;;;8.10;99.90;;;;;;4920495;29;20099;-80
2022/01/03 00:57:47;;;;;;;13.75;3.40;;;8.10;99.90;;;;;;4920418;29;20047;-80
2022/01/03 01:00:14;;;;;;;12.85;2.50;;;8.10;99.90;;;;;;4920506;29;20047;-80
2022/01/03 01:02:51;;;;;;;23.85;3.80;;;8.10;99.90;;;;;;4920272;29;20118;-80
2022/01/03 01:05:19;;;;;;;16.58;2.67;;;8.10;99.90;;;;;;4920423;29;20063;-79
2022/01/03 01:07:46;;;;;;;20.88;3.13;;;8.10;99.90;;;;;;4920200;29;20152;-79
2022/01/03 01:10:12;;;;;;;20.67;3.38;;;8.10;99.90;;;;;;4919863;29;20059;-79
2022/01/03 01:12:40;;;;;;;14.50;3.15;;;8.10;99.90;;;;;;4919901;29;20058;-79
2022/01/03 01:15:06;;;;;;;18.27;2.70;;;8.10;99.90;;;;;;4936889;29;20526;-81
2022/01/03 01:17:33;;;;;;;16.88;4.32;;;8.10;99.90;;;;;;4919724;29;20050;-81
2022/01/03 01:19:59;;;;;;;16.70;3.08;;;8.10;99.90;;;;;;4920122;29;20132;-81
2022/01/03 01:22:25;;;;;;;16.45;3.20;;;8.10;99.90;;;;;;4919762;29;20087;-81
2022/01/03 01:27:46;;;;;;;17.85;3.53;;;8.10;99.90;;;;;;4919747;29;20083;-81
2022/01/03 01:27:51;;;;;;;22.85;3.30;;;8.10;99.90;;;;;;4916295;29;20075;-81
2022/01/03 01:30:23;;;;;;;19.08;3.13;;;8.10;99.90;;;;;;4936738;29;20048;-81
2022/01/03 01:33:11;;;;;;;24.73;3.22;;;8.10;99.90;;;;;;4919610;29;20044;-81
2022/01/03 01:35:47;;;;;;;20.48;3.60;;;8.20;99.90;;;;;;4919611;29;20051;-80
2022/01/03 01:38:16;;;;;;;20.42;3.33;;;8.20;99.90;;;;;;4919581;29;20059;-80
2022/01/03 01:40:46;;;;;;;21.92;2.90;;;8.10;99.90;;;;;;4919538;29;20044;-83
2022/01/03 01:43:14;;;;;;;21.83;4.63;;;8.10;99.90;;;;;;4919641;29;20561;-82
2022/01/03 01:45:42;;;;;;;23.65;3.95;;;8.10;99.90;;;;;;4936640;29;20071;-80
2022/01/03 01:48:11;;;;;;;27.35;4.63;;;8.20;99.90;;;;;;4936590;29;20047;-80
2022/01/03 01:50:41;;;;;;;21.27;3.28;;;8.10;99.90;;;;;;4935574;29;20428;-81
2022/01/03 01:53:08;;;;;;;20.17;4.18;;;8.10;99.90;;;;;;4919593;29;20496;-81
2022/01/03 01:55:35;;;;;;;31.88;5.30;;;8.10;99.90;;;;;;4919731;29;20055;-80
2022/01/03 01:58:24;;;;;;;23.20;3.28;;;8.10;99.90;;;;;;4919231;29;20055;-80
2022/01/03 02:00:59;;;;;;;27.73;3.50;;;8.10;99.90;;;;;;4919144;29;20079;-80
2022/01/03 02:03:38;;;;;;;17.17;3.58;;;8.20;99.90;;;;;;4936467;29;20071;-80
2022/01/03 02:06:32;;;;;;;22.33;3.50;;;8.20;99.90;;;;;;4919425;29;20052;-79
2022/01/03 02:09:05;;;;;;;19.58;4.38;;;8.20;99.90;;;;;;4919487;29;20048;-80
2022/01/03 02:11:34;;;;;;;;;;;8.20;99.90;;;;;;4919579;29;20103;-80
2022/01/03 02:14:00;;;;;;;27.48;3.20;;;8.20;99.90;;;;;;4919301;29;20327;-80
2022/01/03 02:16:26;;;;;;;22.92;3.10;;;8.10;99.90;;;;;;4919249;29;20055;-80
2022/01/03 02:18:51;;;;;;;27.27;4.50;;;8.20;99.90;;;;;;4919383;29;20055;-80
2022/01/03 02:21:19;;;;;;;22.35;2.85;;;8.20;99.90;;;;;;4919410;29;20476;-79
2022/01/03 02:23:45;;;;;;;26.55;3.15;;;8.10;99.90;;;;;;4918897;29;20407;-80
2022/01/03 02:26:12;;;;;;;22.38;3.45;;;8.10;99.90;;;;;;4936202;29;20111;-80
2022/01/03 02:28:37;;;;;;;29.63;4.68;;;8.10;99.90;;;;;;4919140;29;20093;-79
2022/01/03 02:31:03;;;;;;;20.40;4.03;;;8.20;99.90;;;;;;4918922;29;20048;-79
2022/01/03 02:33:29;;;;;;;25.60;3.65;;;8.20;99.90;;;;;;4936163;29;20473;-80
2022/01/03 02:35:54;;;;;;;19.38;3.30;;;8.20;99.90;;;;;;4918998;29;20494;-81
2022/01/03 02:38:20;;;;;;;23.10;5.15;;;8.20;99.90;;;;;;4919374;29;20111;-81
2022/01/03 02:40:46;;;;;;;31.63;4.47;;;8.20;99.90;;;;;;4936158;29;20048;-80
2022/01/03 02:43:11;;;;;;;19.63;2.75;;;8.20;99.90;;;;;;4936117;29;20050;-80
2022/01/03 02:45:37;;;;;;;27.15;3.72;;;8.20;99.90;;;;;;4936053;29;20043;-80
2022/01/03 02:48:11;;;;;;;21.73;4.25;;;8.20;99.90;;;;;;4936311;29;20087;-80
2022/01/03 02:50:39;;;;;;;26.05;3.28;;;8.20;99.90;;;;;;4935911;29;20480;-80
2022/01/03 02:53:05;;;;;;;19.48;3.40;;;8.20;99.90;;;;;;4918900;29;20051;-80
2022/01/03 02:55:31;;;;;;;21.63;3.03;;;8.20;99.90;;;;;;4919229;29;20051;-80
2022/01/03 02:58:05;;;;;;;19.58;4.22;;;8.30;99.90;;;;;;4919155;29;20044;-80
2022/01/03 03:00:34;;;;;;;22.73;3.92;;;8.20;99.90;;;;;;4918956;29;20055;-80
2022/01/03 03:03:02;;;;;;;29.40;3.90;;;8.20;99.90;;;;;;4921456;29;20056;-80
2022/01/03 03:05:28;;;;;;;25.58;5.53;;;8.20;99.90;;;;;;4939384;29;20122;-80
2022/01/03 03:07:54;;;;;;;27.75;4.43;;;8.20;99.90;;;;;;4922273;29;20460;-81
2022/01/03 03:10:23;;;;;;;20.55;3.72;;;8.20;99.90;;;;;;4922143;29;20050;-81
2022/01/03 03:12:49;;;;;;;28.95;4.57;;;8.10;99.90;;;;;;4922269;29;20051;-81
2022/01/03 03:15:16;;;;;;;32.53;4.43;;;8.10;99.90;;;;;;4922294;29;20048;-81
2022/01/03 03:17:43;;;;;;;24.63;3.55;;;8.20;99.90;;;;;;4921985;29;20406;-81
2022/01/03 03:20:11;;;;;;;26.08;3.78;;;8.10;99.90;;;;;;4921987;29;20468;-81
2022/01/03 03:22:38;;;;;;;17.58;4.03;;;8.10;99.90;;;;;;4922063;29;20055;-81
2022/01/03 03:25:12;;;;;;;37.55;6.55;;;8.10;99.90;;;;;;4921876;29;20474;-80
2022/01/03 03:27:43;;;;;;;29.90;6.25;;;8.10;99.90;;;;;;4939089;29;20052;-80
2022/01/03 03:30:14;;;;;;;26.05;4.43;;;8.10;99.90;;;;;;4921927;29;20055;-80
2022/01/03 03:32:42;;;;;;;22.52;3.70;;;8.10;99.90;;;;;;4922061;29;20051;-80
2022/01/03 03:35:08;;;;;;;26.20;4.07;;;8.10;99.90;;;;;;4921790;29;20048;-80
2022/01/03 03:37:33;;;;;;;25.00;3.90;;;8.10;99.90;;;;;;4921727;29;20126;-81
2022/01/03 03:39:59;;;;;;;22.15;3.67;;;8.10;99.90;;;;;;4921803;29;20032;-80
2022/01/03 03:42:25;;;;;;;22.02;3.50;;;8.10;99.90;;;;;;4921714;29;20448;-81
2022/01/03 03:44:51;;;;;;;22.17;4.15;;;8.00;99.90;;;;;;4938756;29;20399;-81
2022/01/03 03:47:16;;;;;;;27.23;4.75;;;8.00;99.90;;;;;;4921769;29;20056;-81
2022/01/03 03:49:42;;;;;;;26.25;4.53;;;8.00;99.90;;;;;;4921440;29;20043;-80
2022/01/03 03:52:08;;;;;;;24.08;4.03;;;8.00;99.90;;;;;;4921688;29;20054;-81
2022/01/03 03:54:34;;;;;;;29.83;5.25;;;8.00;99.90;;;;;;4921550;29;20389;-81
2022/01/03 03:57:01;;;;;;;27.98;4.50;;;8.00;99.90;;;;;;4938308;29;20385;-81
2022/01/03 03:59:27;;;;;;;39.80;5.18;;;8.00;99.90;;;;;;4921233;29;20061;-79
2022/01/03 04:01:55;;;;;;;28.77;6.80;;;7.90;99.90;;;;;;4921252;29;20055;-79
2022/01/03 04:04:21;;;;;;;31.08;5.10;;;8.00;99.90;;;;;;4921248;29;20400;-79
2022/01/03 04:06:47;;;;;;;26.90;4.72;;;8.00;99.90;;;;;;4921412;29;20109;-80
2022/01/03 04:09:13;;;;;;;20.90;3.83;;;8.00;99.90;;;;;;4921064;29;20507;-80
2022/01/03 04:11:39;;;;;;;30.88;4.28;;;8.00;99.90;;;;;;4920997;29;20098;-80
2022/01/03 04:14:05;;;;;;;28.80;5.03;;;8.00;99.90;;;;;;4920427;29;20403;-80
2022/01/03 04:16:31;;;;;;;22.27;4.13;;;8.00;99.90;;;;;;4921224;29;20051;-80
2022/01/03 04:18:56;;;;;;;29.50;3.72;;;8.00;99.90;;;;;;4920966;29;20055;-80
2022/01/03 04:21:22;;;;;;;27.08;4.95;;;8.00;99.90;;;;;;4937971;29;20079;-80
2022/01/03 04:23:48;;;;;;;31.00;5.95;;;8.10;99.90;;;;;;4937665;29;20051;-80
2022/01/03 04:26:14;;;;;;;28.20;4.65;;;8.10;99.90;;;;;;4937960;29;20040;-80
2022/01/03 04:28:40;;;;;;;29.95;4.85;;;8.10;99.90;;;;;;4921004;29;20083;-80
2022/01/03 04:31:06;;;;;;;22.90;4.00;;;8.20;99.90;;;;;;4920482;29;20052;-80
2022/01/03 04:33:32;;;;;;;23.13;4.10;;;8.10;99.90;;;;;;4920924;29;20126;-80
2022/01/03 04:35:58;;;;;;;21.00;5.03;;;8.20;99.90;;;;;;4937782;29;20162;-80
2022/01/03 04:38:24;;;;;;;28.05;5.70;;;8.10;99.90;;;;;;4937522;29;20365;-81
2022/01/03 04:40:49;;;;;;;24.27;3.75;;;8.10;99.90;;;;;;4937519;29;20487;-80
2022/01/03 04:43:15;;;;;;;22.42;3.95;;;8.10;99.90;;;;;;4920681;29;20566;-81
2022/01/03 04:45:41;;;;;;;23.67;5.20;;;8.00;99.90;;;;;;4920453;29;20059;-81
2022/01/03 04:48:06;;;;;;;32.65;4.82;;;8.00;99.90;;;;;;4920802;29;20036;-81
2022/01/03 04:50:32;;;;;;;28.40;3.38;;;8.00;99.90;;;;;;4920362;29;20480;-80
2022/01/03 04:52:58;;;;;;;28.00;4.47;;;8.00;99.90;;;;;;4920243;29;20044;-80
2022/01/03 04:55:24;;;;;;;32.75;4.72;;;8.00;99.90;;;;;;4920458;29;20123;-80
2022/01/03 04:57:50;;;;;;;31.88;7.10;;;8.00;99.90;;;;;;4920210;29;20051;-80
2022/01/03 05:00:17;;;;;;;33.67;5.78;;;8.00;99.90;;;;;;4920217;29;20131;-80
2022/01/03 05:02:43;;;;;;;26.75;3.65;;;7.90;99.90;;;;;;4920305;29;20082;-80
2022/01/03 05:05:09;;;;;;;25.10;3.88;;;7.90;99.90;;;;;;4920437;29;20055;-81
2022/01/03 05:07:35;;;;;;;28.65;5.57;;;7.90;99.90;;;;;;4937215;29;20098;-81
2022/01/03 05:10:01;;;;;;;34.45;4.47;;;7.90;99.90;;;;;;4937100;29;20472;-81
2022/01/03 05:12:27;;;;;;;27.60;4.15;;;7.90;99.90;;;;;;4920267;29;20044;-81
2022/01/03 05:14:52;;;;;;;20.83;3.42;;;7.90;99.90;;;;;;4919952;29;20126;-81
2022/01/03 05:17:18;;;;;;;35.10;4.47;;;7.90;99.90;;;;;;4920218;29;20039;-81
2022/01/03 05:19:43;;;;;;;28.88;4.00;;;7.90;99.90;;;;;;4920227;29;20044;-81
2022/01/03 05:22:10;;;;;;;32.70;4.65;;;7.90;99.90;;;;;;4919490;29;20065;-81
2022/01/03 05:24:37;;;;;;;32.22;3.95;;;7.90;99.90;;;;;;4919626;29;20059;-81
2022/01/03 05:27:04;;;;;;;31.15;5.30;;;7.90;99.90;;;;;;4936748;29;20511;-80
2022/01/03 05:29:30;;;;;;;29.08;4.63;;;7.90;99.90;;;;;;4919870;29;20399;-81
2022/01/03 05:31:56;;;;;;;28.70;5.28;;;7.90;99.90;;;;;;4919764;29;20547;-80
2022/01/03 05:34:22;;;;;;;28.25;5.18;;;7.90;99.90;;;;;;4919553;29;20102;-80
2022/01/03 05:36:48;;;;;;;34.42;5.55;;;7.90;99.90;;;;;;4919784;29;20051;-80
2022/01/03 05:39:14;;;;;;;25.73;4.50;;;7.90;99.90;;;;;;4919826;29;20156;-80
2022/01/03 05:41:40;;;;;;;28.88;4.90;;;7.90;99.90;;;;;;4919483;29;20051;-80
2022/01/03 05:44:07;;;;;;;25.40;5.35;;;7.90;99.90;;;;;;4919826;29;20114;-80
2022/01/03 05:46:32;;;;;;;35.42;6.20;;;7.90;99.90;;;;;;4919545;29;20050;-80
2022/01/03 05:48:58;;;;;;;29.10;5.18;;;7.90;99.90;;;;;;4919794;29;20116;-80
2022/01/03 05:51:24;;;;;;;33.80;5.00;;;7.90;99.90;;;;;;4919290;29;20519;-79
2022/01/03 05:53:50;;;;;;;38.67;4.72;;;7.90;99.90;;;;;;4919636;29;20046;-80
2022/01/03 05:56:15;;;;;;;26.40;4.65;;;8.00;99.90;;;;;;4919679;29;20162;-80
2022/01/03 05:58:41;;;;;;;33.13;4.97;;;7.90;99.90;;;;;;4919374;29;20515;-80
2022/01/03 06:01:07;;;;;;;26.75;4.40;;;7.90;99.90;;;;;;4919403;29;20059;-79
2022/01/03 06:03:37;;;;;;;33.28;5.03;;;8.00;99.90;;;;;;4919441;29;20130;-81
2022/01/03 06:08:28;;;;;;;29.08;4.15;;;8.00;99.90;;;;;;4919480;29;20143;-81
2022/01/03 06:10:54;;;;;;;22.13;5.13;;;8.00;99.90;;;;;;4919165;29;20055;-80
2022/01/03 06:13:20;;;;;;;30.38;6.32;;;8.00;99.90;;;;;;4936374;29;20051;-81
2022/01/03 06:15:46;;;;;;;22.60;3.92;;;8.00;99.90;;;;;;4919339;29;20040;-80
2022/01/03 06:18:14;;;;;;;30.83;4.38;;;7.90;99.90;;;;;;4919319;29;20047;-81
2022/01/03 06:20:45;;;;;;;34.00;5.65;;;8.00;99.90;;;;;;4919132;29;20055;-82
2022/01/03 06:23:12;;;;;;;24.23;4.38;;;7.90;99.90;;;;;;4936034;29;20115;-79
2022/01/03 06:25:39;;;;;;;27.85;5.10;;;8.00;99.90;;;;;;4936302;29;20118;-78
2022/01/03 06:28:09;;;;;;;27.60;6.05;;;8.00;99.90;;;;;;4918948;29;20114;-78
2022/01/03 06:30:35;;;;;;;29.52;5.18;;;7.90;99.90;;;;;;4919282;29;20054;-78
2022/01/03 06:33:02;;;;;;;31.17;4.85;;;7.90;99.90;;;;;;4919236;29;20385;-78
2022/01/03 06:35:29;;;;;;;43.85;5.28;;;7.90;99.90;;;;;;4919019;29;20077;-78
2022/01/03 06:37:55;;;;;;;37.30;4.72;;;8.00;99.90;;;;;;4921950;29;20074;-78
2022/01/03 06:40:21;;;;;;;32.67;4.90;;;7.90;99.90;;;;;;4923038;29;20499;-78
2022/01/03 06:42:46;;;;;;;29.95;5.70;;;8.00;99.90;;;;;;4922734;29;20054;-78
2022/01/03 06:45:12;;;;;;;34.65;5.25;;;8.00;99.90;;;;;;4939813;29;20187;-78
2022/01/03 06:47:38;;;;;;;31.75;4.28;;;8.00;99.90;;;;;;4939610;29;20040;-78
2022/01/03 06:50:04;;;;;;;34.72;4.72;;;8.00;99.90;;;;;;4922626;29;20044;-79
2022/01/03 06:52:30;;;;;;;31.15;4.40;;;8.00;99.90;;;;;;4939658;29;20043;-78
2022/01/03 06:54:56;;;;;;;34.45;4.50;;;8.00;99.90;;;;;;4939663;29;20040;-78
2022/01/03 06:57:22;;;;;;;24.55;5.40;;;8.00;99.90;;;;;;4939565;29;20122;-78
2022/01/03 06:59:48;;;;;;;28.58;4.97;;;8.00;99.90;;;;;;4922728;29;20051;-78
2022/01/03 07:02:13;;;;;;;28.60;5.07;;;8.00;99.90;;;;;;4922491;29;20051;-79
2022/01/03 07:04:39;;;;;;;26.83;3.58;;;8.00;99.90;;;;;;4922543;29;20051;-78
2022/01/03 07:07:05;;;;;;;26.48;5.00;;;8.00;99.90;;;;;;4922223;29;20043;-78
2022/01/03 07:09:31;;;;;;;37.45;6.32;;;8.00;99.90;;;;;;4922179;29;20050;-78
2022/01/03 07:11:57;;;;;;;29.15;4.60;;;8.00;99.90;;;;;;4922544;29;20043;-78
2022/01/03 07:19:34;;;;;;;24.02;5.03;;;7.90;99.90;;;;;;4922293;29;20111;-78
2022/01/03 07:22:02;;;;;;;28.83;4.55;;;8.00;99.90;;;;;;4939097;29;20094;-78
2022/01/03 07:24:30;;;;;;;35.42;4.93;;;7.90;99.90;;;;;;4938828;29;20062;-78
2022/01/03 07:26:55;;;;;;;31.60;5.47;;;7.90;99.90;;;;;;4938763;29;20403;-78
2022/01/03 07:29:21;;;;;;;20.10;3.53;;;7.90;99.90;;;;;;4921817;29;20035;-78
2022/01/03 07:31:46;;;;;;;28.98;4.63;;;8.00;99.90;;;;;;4921529;29;20047;-78
2022/01/03 07:34:12;;;;;;;37.65;5.20;;;8.00;99.90;;;;;;4921572;29;20047;-78
2022/01/03 07:36:38;;;;;;;30.85;4.03;;;7.90;99.90;;;;;;4921518;29;20044;-78
2022/01/03 07:39:04;;;;;;;27.42;4.63;;;7.90;99.90;;;;;;4921163;29;20083;-78
2022/01/03 07:41:31;;;;;;;31.67;4.55;;;8.00;99.90;;;;;;4920236;29;20083;-78
2022/01/03 07:43:57;;;;;;;25.25;4.13;;;7.90;99.90;;;;;;4938076;29;20078;-78
2022/01/03 07:46:22;;;;;;;32.28;4.28;;;7.90;99.90;;;;;;4938346;29;20476;-78
2022/01/03 07:48:48;;;;;;;30.45;4.53;;;7.90;99.90;;;;;;4937068;29;20046;-79
2022/01/03 07:51:14;;;;;;;34.05;5.10;;;7.90;99.90;;;;;;4921215;29;20480;-79
2022/01/03 07:53:42;;;;;;;27.55;4.68;;;7.80;99.90;;;;;;4921229;29;20044;-78
2022/01/03 07:56:09;;;;;;;26.10;4.53;;;7.90;99.90;;;;;;4921334;29;20070;-78
2022/01/03 07:58:35;;;;;;;27.63;4.00;;;7.90;99.90;;;;;;4938355;29;20074;-78
2022/01/03 08:01:01;;;;;;;32.67;5.53;;;7.90;99.90;;;;;;4921126;29;20043;-78
2022/01/03 08:03:27;;;;;;;34.55;4.95;;;7.90;99.90;;;;;;4921437;29;20534;-78
2022/01/03 08:05:53;;;;;;;31.30;5.50;;;7.90;99.90;;;;;;4921253;29;20142;-79
2022/01/03 08:08:18;;;;;;;29.08;4.70;;;7.90;99.90;;;;;;4920919;29;20040;-79
2022/01/03 08:10:45;;;;;;;31.85;7.55;;;7.90;99.90;;;;;;4921018;29;20054;-78
2022/01/03 08:13:11;;;;;;;34.30;5.20;;;7.90;99.90;;;;;;4921052;29;20120;-79
2022/01/03 08:15:38;;;;;;;35.85;5.88;;;7.90;99.90;;;;;;4921237;29;20204;-79
2022/01/03 08:18:04;;;;;;;23.13;3.92;;;7.90;99.90;;;;;;4937835;29;20056;-79
2022/01/03 08:20:30;;;;;;;31.17;5.60;;;8.00;99.90;;;;;;4937910;29;20073;-79
2022/01/03 08:22:56;;;;;;;31.17;4.70;;;8.00;99.90;;;;;;4920400;29;20063;-80
2022/01/03 08:25:21;;;;;;;29.38;4.15;;;8.00;99.90;;;;;;4920878;29;20050;-80
2022/01/03 08:27:47;;;;;;;30.27;4.50;;;8.00;99.90;;;;;;4916593;29;20048;-79
2022/01/03 08:30:13;;;;;;;24.98;4.28;;;8.00;99.90;;;;;;4909885;29;20504;-79
2022/01/03 08:32:39;;;;;;;24.73;3.90;;;8.00;99.90;;;;;;4901489;29;20080;-79
2022/01/03 08:35:06;;;;;;;24.35;4.10;;;8.10;99.90;;;;;;4918255;29;20088;-78
2022/01/03 08:37:32;;;;;;;31.13;4.53;;;8.10;99.90;;;;;;4918193;29;20407;-79
2022/01/03 08:40:03;;;;;;;28.83;4.10;;;8.10;99.90;;;;;;4918303;29;20044;-78
2022/01/03 08:42:29;;;;;;;22.20;3.67;;;8.10;99.90;;;;;;4901241;29;20547;-78
2022/01/03 08:44:55;;;;;;;34.20;4.10;;;8.20;99.90;;;;;;4901444;29;20048;-80
2022/01/03 08:47:21;;;;;;;26.98;4.40;;;8.20;99.90;;;;;;4901235;29;20377;-78
2022/01/03 08:49:46;;;;;;;30.95;3.65;;;8.20;99.90;;;;;;4901217;29;20160;-79
2022/01/03 08:52:12;;;;;;;29.42;6.05;;;8.30;99.90;;;;;;4901017;29;20064;-78
2022/01/03 08:54:38;;;;;;;28.75;4.03;;;8.30;99.90;;;;;;4901049;29;20044;-79
2022/01/03 08:57:04;;;;;;;29.67;4.13;;;8.40;99.90;;;;;;4901255;29;20484;-78
2022/01/03 08:59:29;;;;;;;29.35;4.28;;;8.40;99.90;;;;;;4900512;29;20055;-78
2022/01/03 09:01:55;;;;;;;33.95;5.90;;;8.40;99.90;;;;;;4900911;29;20048;-79
2022/01/03 09:04:21;;;;;;;22.73;4.55;;;8.40;99.90;;;;;;4900953;29;20048;-79
2022/01/03 09:06:48;;;;;;;24.63;4.00;;;8.40;99.90;;;;;;4900735;29;20048;-79
2022/01/03 09:09:14;;;;;;;31.75;3.95;;;8.40;99.90;;;;;;4901026;29;20052;-78
2022/01/03 09:11:39;;;;;;;30.00;4.03;;;8.40;99.90;;;;;;4900791;29;20110;-78
2022/01/03 09:14:05;;;;;;;27.13;4.15;;;8.40;99.90;;;;;;4900956;29;20060;-78
2022/01/03 09:16:31;;;;;;;27.98;4.88;;;8.40;99.90;;;;;;4901006;29;20392;-78
2022/01/03 09:18:56;;;;;;;43.08;5.45;;;8.40;99.90;;;;;;4917698;29;20063;-79
2022/01/03 09:21:22;;;;;;;35.95;5.85;;;8.40;99.90;;;;;;4917476;29;20051;-78
2022/01/03 09:23:52;;;;;;;26.35;4.38;;;8.40;99.90;;;;;;4900306;29;20056;-79
2022/01/03 09:29:03;;;;;;;26.52;4.07;;;8.50;99.90;;;;;;4900695;29;20090;-78
2022/01/03 09:31:31;;;;;;;27.50;4.15;;;8.50;99.90;;;;;;4900313;29;20155;-78
2022/01/03 09:34:01;;;;;;;36.38;6.10;;;8.50;99.90;;;;;;4905108;29;20043;-78
2022/01/03 09:36:28;;;;;;;33.60;4.55;;;8.50;99.90;;;;;;4930685;29;20059;-79
2022/01/03 09:38:54;;;;;;;31.42;5.43;;;8.50;99.90;;;;;;4900283;29;20036;-78
2022/01/03 09:41:23;;;;;;;28.10;4.68;;;8.50;99.90;;;;;;4923846;29;20047;-78
2022/01/03 09:43:52;;;;;;;35.83;7.15;;;8.60;99.90;;;;;;4915339;29;20114;-80
2022/01/03 09:46:22;;;;;;;35.17;5.63;;;8.60;99.90;;;;;;4906910;29;20046;-79
2022/01/03 09:48:52;;;;;;;35.47;5.10;;;8.60;99.90;;;;;;4925549;29;20410;-78
2022/01/03 09:51:20;;;;;;;32.78;5.25;;;8.60;99.90;;;;;;4917755;29;20058;-79
2022/01/03 09:53:47;;;;;;;30.05;4.28;;;8.70;99.90;;;;;;4930445;29;20459;-79
2022/01/03 09:56:14;;;;;;;36.63;4.85;;;8.70;99.90;;;;;;4932174;29;20055;-78
2022/01/03 09:58:40;;;;;;;31.77;3.92;;;8.80;99.90;;;;;;4938881;29;20042;-79
2022/01/03 10:01:06;;;;;;;31.63;5.72;;;8.80;99.90;;;;;;4921046;29;20059;-80
2022/01/03 10:03:34;;;;;;;30.77;5.88;;;8.80;99.90;;;;;;4927571;29;20054;-79
2022/01/03 10:06:00;;;;;;;29.25;6.43;;;8.90;99.90;;;;;;4921126;29;20054;-80
2022/01/03 10:08:26;;;;;;;25.40;5.07;;;9.00;99.90;;;;;;4929634;29;20482;-79
2022/01/03 10:10:53;;;;;;;24.25;4.25;;;9.10;99.90;;;;;;4918985;29;20055;-80
2022/01/03 10:13:19;;;;;;;33.30;5.28;;;9.10;99.90;;;;;;4933058;29;20051;-79
2022/01/03 10:15:45;;;;;;;30.00;5.97;;;9.10;99.90;;;;;;4922976;29;20505;-79
2022/01/03 10:18:18;;;;;;;26.35;5.18;;;9.00;99.90;;;;;;4933844;29;20147;-79
2022/01/03 10:20:44;;;;;;;28.85;4.20;;;9.00;99.90;;;;;;4913961;29;20091;-80
2022/01/03 10:23:13;;;;;;;24.90;3.15;;;9.00;99.90;;;;;;4947920;29;20098;-80
2022/01/03 10:25:39;;;;;;;25.65;5.70;;;9.00;99.90;;;;;;4939974;29;20125;-79
2022/01/03 10:28:05;;;;;;;31.67;4.60;;;9.10;99.90;;;;;;4922474;29;20043;-79
2022/01/03 10:30:40;;;;;;;37.17;6.40;;;9.10;99.90;;;;;;4933119;29;20079;-79
2022/01/03 10:33:17;;;;;;;21.92;3.78;;;9.00;99.90;;;;;;4922734;29;20059;-79
2022/01/03 10:35:46;;;;;;;22.90;4.63;;;9.10;99.90;;;;;;4924876;29;20102;-79
2022/01/03 10:38:34;;;;;;;27.42;4.20;;;9.10;99.90;;;;;;4947775;29;20502;-79
2022/01/03 10:41:20;;;;;;;23.85;4.03;;;9.20;99.90;;;;;;4922665;29;20047;-80
2022/01/03 10:43:48;;;;;;;23.13;4.40;;;9.30;99.90;;;;;;4924837;29;20054;-79
2022/01/03 10:46:21;;;;;;;27.98;5.88;;;9.40;99.90;;;;;;4947800;29;20051;-79
2022/01/03 10:48:47;;;;;;;32.30;5.18;;;9.40;99.90;;;;;;4922024;29;20047;-79
2022/01/03 10:51:21;;;;;;;17.85;4.15;;;9.50;99.90;;;;;;4949962;29;20050;-79
2022/01/03 10:53:46;;;;;;;28.40;5.00;;;9.40;99.90;;;;;;4920821;29;20051;-79
2022/01/03 10:56:30;;;;;;;17.20;3.55;;;9.50;99.90;;;;;;4947268;29;20051;-79
2022/01/03 10:58:58;;;;;;;33.40;5.03;;;9.50;99.90;;;;;;4919985;29;20052;-79
2022/01/03 11:01:28;;;;;;;22.00;4.30;;;9.50;99.90;;;;;;4920060;29;20145;-79
2022/01/03 11:03:57;;;;;;;24.30;5.35;;;9.60;99.90;;;;;;4914461;29;20055;-79
2022/01/03 11:11:42;;;;;;;23.35;3.97;;;9.70;99.90;;;;;;4925057;29;20058;-79
2022/01/03 11:14:09;;;;;;;21.08;3.78;;;9.70;99.90;;;;;;4958084;29;20476;-78
2022/01/03 11:16:39;;;;;;;28.13;5.40;;;9.80;99.90;;;;;;4934704;29;20102;-78
2022/01/03 11:19:06;;;;;;;27.83;4.00;;;9.80;99.90;;;;;;4926470;29;20410;-79
2022/01/03 11:21:33;;;;;;;25.27;4.93;;;9.90;99.90;;;;;;4926669;29;20483;-79
2022/01/03 11:24:06;;;;;;;25.15;4.30;;;9.90;99.90;;;;;;4926468;29;20082;-79
2022/01/03 11:26:35;;;;;;;29.88;4.32;;;10.00;99.90;;;;;;4921565;29;20059;-78
2022/01/03 11:29:03;;;;;;;25.48;3.92;;;10.00;99.90;;;;;;4923804;29;20043;-79
2022/01/03 11:31:38;;;;;;;26.25;3.40;;;10.00;99.90;;;;;;4929673;29;20083;-78
2022/01/03 11:34:04;;;;;;;29.83;6.85;;;10.00;99.90;;;;;;4921641;29;20043;-79
2022/01/03 11:36:30;;;;;;;28.45;4.90;;;10.00;99.90;;;;;;4925854;29;20067;-79
2022/01/03 11:39:00;;;;;;;36.53;5.80;;;10.00;99.90;;;;;;4944322;29;20897;-78
2022/01/03 11:41:27;;;;;;;31.50;5.40;;;10.00;99.90;;;;;;4920984;29;20054;-78
2022/01/03 11:43:53;;;;;;;24.42;3.88;;;10.00;99.90;;;;;;4938519;29;20036;-78
2022/01/03 11:46:20;;;;;;;26.35;5.03;;;10.00;99.90;;;;;;4921080;29;20558;-78
2022/01/03 11:48:46;;;;;;;19.58;4.13;;;10.00;99.90;;;;;;4938133;29;20539;-78
2022/01/03 11:51:13;;;;;;;26.48;4.25;;;10.10;99.90;;;;;;4920850;29;20131;-78
2022/01/03 11:53:49;;;;;;;25.23;3.47;;;10.10;99.90;;;;;;4921349;29;20058;-78
2022/01/03 11:56:21;;;;;;;24.27;3.13;;;10.10;99.90;;;;;;4921286;29;20051;-78
2022/01/03 12:04:16;;;;;;;21.92;3.97;;;10.00;99.90;;;;;;4919111;29;20059;-79
2022/01/03 12:06:43;;;;;;;26.75;3.97;;;10.00;99.90;;;;;;4938285;29;20050;-79
2022/01/03 12:09:14;;;;;;;24.63;3.97;;;10.00;99.90;;;;;;4942106;29;20043;-78
2022/01/03 12:11:46;;;;;;;18.83;3.33;;;9.90;99.90;;;;;;4937544;29;20039;-79
2022/01/03 12:14:16;;;;;;;25.95;4.10;;;9.90;99.90;;;;;;4936734;29;20055;-79
2022/01/03 12:16:48;;;;;;;22.35;4.75;;;9.80;99.90;;;;;;4920902;29;20079;-79
2022/01/03 12:19:34;;;;;;;22.73;5.00;;;9.90;99.90;;;;;;4937694;29;20047;-79
2022/01/03 12:22:20;;;;;;;25.55;4.53;;;9.80;99.90;;;;;;4937886;29;20279;-79
2022/01/03 12:24:46;;;;;;;19.38;3.28;;;9.80;99.90;;;;;;4920368;29;20063;-79
2022/01/03 12:27:15;;;;;;;24.10;4.45;;;9.80;99.90;;;;;;4920469;29;20044;-79
2022/01/03 12:29:56;;;;;;;19.90;3.10;;;9.70;99.90;;;;;;4920621;29;20416;-78
2022/01/03 12:32:31;;;;;;;25.13;4.85;;;9.70;99.90;;;;;;4919692;29;20066;-78
2022/01/03 12:35:22;;;;;;;25.05;3.40;;;9.70;99.90;;;;;;4919776;29;20385;-78
2022/01/03 12:37:54;;;;;;;25.02;4.18;;;9.70;99.90;;;;;;4920646;29;20048;-78
2022/01/03 12:40:27;;;;;;;24.42;3.58;;;9.70;99.90;;;;;;4920499;29;20044;-77
2022/01/03 12:43:10;;;;;;;20.15;3.67;;;9.70;99.90;;;;;;4937306;29;20032;-78
2022/01/03 12:45:44;;;;;;;23.73;4.20;;;9.60;99.90;;;;;;4920348;29;20047;-77
2022/01/03 12:48:15;;;;;;;23.40;5.40;;;9.70;99.90;;;;;;4937391;29;20048;-80
2022/01/03 12:50:53;;;;;;;30.83;4.75;;;9.70;99.90;;;;;;4920185;29;20055;-79
2022/01/03 12:53:27;;;;;;;24.95;3.90;;;9.70;99.90;;;;;;4920220;29;20130;-78
2022/01/03 12:56:01;;;;;;;22.48;3.58;;;9.70;99.90;;;;;;4937281;29;20051;-79
2022/01/03 12:58:26;;;;;;;25.38;3.33;;;9.70;99.90;;;;;;4936858;29;20877;-79
2022/01/03 13:00:55;;;;;;;30.10;5.13;;;9.60;99.90;;;;;;4919856;29;20134;-80
2022/01/03 13:03:28;;;;;;;26.98;5.05;;;9.60;99.90;;;;;;4919803;29;20048;-79
2022/01/03 13:06:05;;;;;;;;;;;9.70;99.90;;;;;;4920168;29;20138;-78
2022/01/03 13:08:41;;;;;;;24.20;3.78;;;9.70;99.90;;;;;;4919749;29;19930;-79
2022/01/03 13:11:10;;;;;;;20.58;4.15;;;9.70;99.90;;;;;;4919815;29;20399;-79
2022/01/03 13:13:37;;;;;;;21.38;3.25;;;9.70;99.90;;;;;;4919835;29;20055;-79